createdAt,value
2022-11-05T00:00:05.987Z,6.16
2022-11-05T00:05:58.113Z,6.43
2022-11-05T00:11:40.328Z,6.16
2022-11-05T00:17:44.583Z,6.62
2022-11-05T00:23:43.501Z,7.09
2022-11-05T00:29:18.689Z,5.46
2022-11-05T00:34:50.921Z,5.07
2022-11-05T00:40:36.584Z,6.22
2022-11-05T00:46:17.814Z,6.76
2022-11-05T00:52:03.753Z,4.07
2022-11-05T00:57:50.092Z,6.44
2022-11-05T01:03:26.353Z,5.32
2022-11-05T01:08:53.675Z,6.03
2022-11-05T01:14:25.014Z,6.31
2022-11-05T01:20:41.915Z,5.70
2022-11-05T01:26:23.568Z,6.00
2022-11-05T01:32:01.054Z,5.27
2022-11-05T01:37:37.821Z,5.08
2022-11-05T01:43:17.395Z,5.15
2022-11-05T01:49:07.548Z,6.63
2022-11-05T01:54:45.566Z,6.21
2022-11-05T02:00:33.002Z,9.39
2022-11-05T02:12:26.902Z,8.36
2022-11-05T02:18:08.338Z,5.71
2022-11-05T02:23:53.053Z,6.21
2022-11-05T02:29:46.140Z,8.09
2022-11-05T02:35:55.094Z,7.24
2022-11-05T02:42:11.837Z,7.59
2022-11-05T02:47:50.961Z,7.21
2022-11-05T02:53:32.440Z,6.91
2022-11-05T02:59:10.533Z,8.18
2022-11-05T03:04:50.693Z,7.33
2022-11-05T03:10:38.950Z,6.23
2022-11-05T03:16:15.088Z,8.60
2022-11-05T03:21:55.806Z,7.26
2022-11-05T03:27:34.521Z,8.20
2022-11-05T03:33:32.608Z,6.94
2022-11-05T03:39:24.977Z,8.34
2022-11-05T03:45:06.136Z,11.69
2022-11-05T03:50:52.544Z,8.43
2022-11-05T03:56:43.725Z,9.65
2022-11-05T04:02:31.655Z,10.62
2022-11-05T04:08:14.503Z,12.74
2022-11-05T04:13:50.588Z,12.62
2022-11-05T04:19:34.638Z,13.42
2022-11-05T04:31:38.934Z,15.67
2022-11-05T04:37:11.789Z,13.25
2022-11-05T04:42:38.409Z,16.21
2022-11-05T04:48:03.994Z,18.55
2022-11-05T04:53:42.730Z,17.83
2022-11-05T04:59:09.125Z,16.34
2022-11-05T05:04:46.257Z,16.45
2022-11-05T05:10:18.753Z,16.69
2022-11-05T05:15:48.827Z,16.95
2022-11-05T05:21:25.586Z,16.47
2022-11-05T05:27:10.413Z,16.07
2022-11-05T05:32:42.497Z,12.43
2022-11-05T05:38:09.294Z,14.49
2022-11-05T05:43:37.447Z,10.00
2022-11-05T05:49:07.982Z,7.92
2022-11-05T05:54:32.886Z,6.46
2022-11-05T05:59:58.064Z,6.11
2022-11-05T06:05:29.709Z,5.16
2022-11-05T06:10:55.575Z,5.36
2022-11-05T06:16:19.310Z,5.96
2022-11-05T06:21:43.451Z,5.10
2022-11-05T06:27:09.028Z,5.19
2022-11-05T06:32:32.453Z,4.17
2022-11-05T06:37:59.905Z,3.19
2022-11-05T06:43:27.315Z,3.47
2022-11-05T06:48:51.597Z,7.02
2022-11-05T06:54:19.161Z,4.51
2022-11-05T06:59:43.590Z,7.63
2022-11-05T07:05:08.748Z,3.84
2022-11-05T07:10:30.950Z,5.61
2022-11-05T07:15:58.063Z,3.67
2022-11-05T07:21:23.240Z,4.66
2022-11-05T07:26:49.772Z,4.97
2022-11-05T07:32:15.681Z,5.49
2022-11-05T07:37:39.650Z,4.32
2022-11-05T07:43:06.038Z,4.40
2022-11-05T07:48:32.229Z,4.95
2022-11-05T07:53:53.863Z,6.09
2022-11-05T07:59:16.188Z,5.10
2022-11-05T08:04:41.827Z,7.21
2022-11-05T08:10:09.277Z,7.35
2022-11-05T08:15:34.386Z,6.06
2022-11-05T08:21:00.529Z,8.74
2022-11-05T08:26:28.182Z,8.71
2022-11-05T08:31:55.081Z,8.39
2022-11-05T08:37:21.250Z,10.13
2022-11-05T08:42:47.671Z,8.46
2022-11-05T08:48:11.322Z,6.94
2022-11-05T08:53:38.212Z,6.97
2022-11-05T08:59:02.428Z,8.49
2022-11-05T09:04:28.165Z,7.73
2022-11-05T09:09:53.519Z,8.34
2022-11-05T09:15:14.980Z,10.01
2022-11-05T09:20:36.613Z,8.20
2022-11-05T09:25:59.566Z,6.32
2022-11-05T09:31:23.214Z,7.75
2022-11-05T09:36:48.978Z,6.90
2022-11-05T09:42:10.756Z,7.07
2022-11-05T09:47:35.239Z,7.84
2022-11-05T09:52:57.815Z,6.84
2022-11-05T09:58:28.569Z,7.13
2022-11-05T10:03:49.460Z,5.61
2022-11-05T10:09:11.384Z,8.66
2022-11-05T10:14:33.280Z,5.64
2022-11-05T10:19:55.147Z,7.42
2022-11-05T10:25:22.738Z,7.41
2022-11-05T10:30:50.268Z,7.92
2022-11-05T10:36:18.499Z,6.49
2022-11-05T10:41:40.576Z,6.63
2022-11-05T10:47:26.250Z,7.41
2022-11-05T10:53:00.085Z,8.57
2022-11-05T10:58:27.891Z,12.21
2022-11-05T11:03:55.015Z,7.97
2022-11-05T11:09:26.322Z,6.47
2022-11-05T11:14:51.952Z,6.26
2022-11-05T11:20:22.031Z,6.25
2022-11-05T11:25:49.603Z,4.86
2022-11-05T11:31:16.076Z,5.33
2022-11-05T11:36:40.917Z,6.13
2022-11-05T11:42:08.124Z,5.10
2022-11-05T11:47:33.878Z,3.95
2022-11-05T11:53:00.554Z,2.81
2022-11-05T11:58:43.058Z,3.65
2022-11-05T12:04:09.704Z,3.46
2022-11-05T12:09:47.853Z,4.62
2022-11-05T12:15:30.754Z,5.15
2022-11-05T12:20:58.649Z,3.70
2022-11-05T12:26:27.369Z,2.27
2022-11-05T12:31:55.482Z,2.24
2022-11-05T12:37:26.918Z,3.78
2022-11-05T12:42:50.344Z,2.20
2022-11-05T12:48:24.704Z,3.34
2022-11-05T12:53:53.251Z,4.51
2022-11-05T12:59:30.246Z,4.43
2022-11-05T13:04:54.132Z,4.90
2022-11-05T13:10:18.703Z,3.40
2022-11-05T13:15:42.168Z,4.57
2022-11-05T13:21:07.247Z,5.14
2022-11-05T13:26:31.425Z,4.74
2022-11-05T13:31:53.343Z,4.20
2022-11-05T13:37:21.999Z,4.96
2022-11-05T13:42:49.775Z,3.90
2022-11-05T13:48:24.179Z,3.37
2022-11-05T13:54:01.868Z,3.32
2022-11-05T13:59:43.684Z,2.71
2022-11-05T14:05:14.766Z,1.43
2022-11-05T14:10:45.728Z,1.89
2022-11-05T14:16:18.869Z,1.61
2022-11-05T14:21:45.459Z,2.69
2022-11-05T14:27:11.036Z,2.80
2022-11-05T14:33:03.872Z,3.53
2022-11-05T14:38:36.636Z,2.50
2022-11-05T14:44:04.276Z,2.62
2022-11-05T14:49:29.407Z,5.17
2022-11-05T14:54:57.600Z,4.18
2022-11-05T15:00:22.587Z,4.53
2022-11-05T15:06:03.790Z,3.73
2022-11-05T15:11:42.151Z,3.21
2022-11-05T15:17:07.085Z,3.44
2022-11-05T15:22:37.769Z,6.33
2022-11-05T15:28:02.647Z,3.20
2022-11-05T15:33:25.671Z,5.45
2022-11-05T15:39:15.100Z,5.61
2022-11-05T15:44:13.831Z,5.51
2022-11-05T15:49:41.091Z,4.50
2022-11-05T15:55:02.350Z,3.64
2022-11-05T16:00:37.960Z,4.77
2022-11-05T16:06:04.740Z,4.78
2022-11-05T16:11:29.737Z,7.64
2022-11-05T16:16:55.360Z,8.07
2022-11-05T16:22:22.294Z,5.59
2022-11-05T16:27:56.860Z,5.63
2022-11-05T16:33:24.210Z,5.18
2022-11-05T16:38:50.225Z,5.94
2022-11-05T16:44:11.889Z,6.44
2022-11-05T16:49:39.832Z,6.28
2022-11-05T16:55:06.812Z,7.03
2022-11-05T17:00:32.788Z,6.16
2022-11-05T17:05:59.573Z,6.62
2022-11-05T17:11:27.243Z,8.06
2022-11-05T17:16:52.997Z,7.27
2022-11-05T17:22:21.222Z,9.56
2022-11-05T17:27:48.587Z,9.49
2022-11-05T17:33:11.039Z,9.68
2022-11-05T17:38:37.013Z,10.48
2022-11-05T17:43:58.520Z,14.95
2022-11-05T17:49:20.006Z,13.80
2022-11-05T17:54:43.929Z,13.55
2022-11-05T18:00:12.025Z,9.68
2022-11-05T18:05:39.465Z,10.70
2022-11-05T18:11:05.970Z,10.57
2022-11-05T18:16:31.351Z,11.25
2022-11-05T18:22:00.858Z,10.59
2022-11-05T18:27:31.544Z,13.29
2022-11-05T18:32:57.602Z,12.86
2022-11-05T18:38:20.353Z,16.98
2022-11-05T18:43:45.550Z,14.07
2022-11-05T18:49:09.685Z,17.17
2022-11-05T18:54:43.575Z,14.61
2022-11-05T19:00:16.807Z,13.81
2022-11-05T19:06:10.079Z,11.76
2022-11-05T19:11:49.175Z,13.50
2022-11-05T19:17:23.092Z,16.19
2022-11-05T19:22:46.667Z,17.56
2022-11-05T19:28:12.381Z,18.38
2022-11-05T19:33:35.143Z,30.45
2022-11-05T19:38:59.236Z,21.29
2022-11-05T19:44:26.051Z,30.72
2022-11-05T19:49:49.079Z,25.27
2022-11-05T19:55:14.622Z,11.95
2022-11-05T20:00:43.194Z,16.38
2022-11-05T20:06:10.898Z,11.81
2022-11-05T20:11:37.839Z,7.80
2022-11-05T20:17:14.956Z,8.43
2022-11-05T20:22:48.811Z,7.28
2022-11-05T20:28:17.919Z,7.59
2022-11-05T20:34:02.543Z,10.93
2022-11-05T20:39:31.579Z,8.96
2022-11-05T20:45:07.969Z,7.53
2022-11-05T20:51:03.253Z,8.01
2022-11-05T20:56:55.153Z,9.34
2022-11-05T21:03:34.628Z,7.25
2022-11-05T21:09:02.771Z,7.75
2022-11-05T21:20:36.724Z,6.00
2022-11-05T21:26:33.665Z,6.88
2022-11-05T21:32:27.412Z,5.10
2022-11-05T21:37:56.376Z,4.85
2022-11-05T21:44:09.874Z,5.35
2022-11-05T21:49:44.552Z,4.76
2022-11-05T21:55:31.361Z,5.88
2022-11-05T22:01:06.297Z,4.16
2022-11-05T22:06:34.713Z,5.82
2022-11-05T22:12:20.577Z,4.55
2022-11-05T22:18:17.618Z,5.66
2022-11-05T22:23:53.601Z,5.52
2022-11-05T22:29:39.763Z,4.81
2022-11-05T22:35:31.241Z,6.52
2022-11-05T22:41:02.715Z,4.97
2022-11-05T22:46:30.611Z,5.43
2022-11-05T22:52:02.061Z,4.71
2022-11-05T22:57:28.254Z,4.59
2022-11-05T23:03:08.969Z,6.96
2022-11-05T23:08:42.674Z,5.75
2022-11-05T23:14:16.816Z,6.24
2022-11-05T23:19:45.233Z,5.21
2022-11-05T23:25:16.924Z,7.20
2022-11-05T23:30:47.530Z,6.53
2022-11-05T23:36:26.594Z,4.83
2022-11-05T23:42:59.333Z,5.12
